createdAt,value
2022-08-12T00:02:03.271Z,16.50
2022-08-12T00:04:52.518Z,16.54
2022-08-12T00:07:39.418Z,16.55
2022-08-12T00:10:25.682Z,16.52
2022-08-12T00:13:12.128Z,16.50
2022-08-12T00:16:02.035Z,16.47
2022-08-12T00:18:49.613Z,16.40
2022-08-12T00:21:37.585Z,16.34
2022-08-12T00:24:24.314Z,16.29
2022-08-12T00:27:10.273Z,16.09
2022-08-12T00:29:56.727Z,16.14
2022-08-12T00:32:56.649Z,16.12
2022-08-12T00:35:44.605Z,16.21
2022-08-12T00:38:31.105Z,15.98
2022-08-12T00:41:18.460Z,15.89
2022-08-12T00:43:49.271Z,15.76
2022-08-12T00:46:32.162Z,15.75
2022-08-12T00:49:02.975Z,15.66
2022-08-12T00:51:46.167Z,15.70
2022-08-12T00:54:15.001Z,15.71
2022-08-12T00:56:43.271Z,15.72
2022-08-12T00:59:12.634Z,15.65
2022-08-12T01:02:10.360Z,15.57
2022-08-12T01:04:53.629Z,15.65
2022-08-12T01:07:45.166Z,15.67
2022-08-12T01:10:32.621Z,15.63
2022-08-12T01:13:07.177Z,15.62
2022-08-12T01:15:40.579Z,15.67
2022-08-12T01:18:08.897Z,15.68
2022-08-12T01:20:41.492Z,15.58
2022-08-12T01:23:31.446Z,15.52
2022-08-12T01:26:04.304Z,15.52
2022-08-12T01:28:34.696Z,15.52
2022-08-12T01:31:05.873Z,15.41
2022-08-12T01:33:44.319Z,15.36
2022-08-12T01:36:14.053Z,15.45
2022-08-12T01:38:43.831Z,15.47
2022-08-12T01:41:18.027Z,15.41
2022-08-12T01:43:46.973Z,15.35
2022-08-12T01:46:37.417Z,15.39
2022-08-12T01:49:21.947Z,15.34
2022-08-12T01:52:15.179Z,15.17
2022-08-12T01:54:49.115Z,15.18
2022-08-12T01:57:59.655Z,15.07
2022-08-12T02:00:15.937Z,15.07
2022-08-12T02:02:51.346Z,14.97
2022-08-12T02:05:49.597Z,14.97
2022-08-12T02:08:54.077Z,14.86
2022-08-12T02:11:26.208Z,14.77
2022-08-12T02:14:13.980Z,14.65
2022-08-12T02:16:59.595Z,14.62
2022-08-12T02:19:43.532Z,14.48
2022-08-12T02:22:24.141Z,14.46
2022-08-12T02:24:54.458Z,14.39
2022-08-12T02:27:24.886Z,14.43
2022-08-12T02:29:54.327Z,14.40
2022-08-12T02:32:22.840Z,14.35
2022-08-12T02:34:52.175Z,14.38
2022-08-12T02:37:25.229Z,14.40
2022-08-12T02:39:59.137Z,14.42
2022-08-12T02:42:32.837Z,14.39
2022-08-12T02:45:06.521Z,14.25
2022-08-12T02:48:00.655Z,14.24
2022-08-12T02:50:32.595Z,14.13
2022-08-12T02:53:01.627Z,14.17
2022-08-12T02:55:35.003Z,14.16
2022-08-12T02:58:06.958Z,14.21
2022-08-12T03:00:44.348Z,14.23
2022-08-12T03:03:15.069Z,14.33
2022-08-12T03:05:49.701Z,14.35
2022-08-12T03:08:32.657Z,14.35
2022-08-12T03:11:11.733Z,14.27
2022-08-12T03:13:47.772Z,14.25
2022-08-12T03:16:17.272Z,14.19
2022-08-12T03:18:46.490Z,14.22
2022-08-12T03:21:17.536Z,14.09
2022-08-12T03:24:09.586Z,14.03
2022-08-12T03:26:38.656Z,14.02
2022-08-12T03:29:08.058Z,13.98
2022-08-12T03:31:37.448Z,14.01
2022-08-12T03:34:08.482Z,14.06
2022-08-12T03:36:38.696Z,14.09
2022-08-12T03:39:36.397Z,14.10
2022-08-12T03:42:22.092Z,14.14
2022-08-12T03:45:15.908Z,13.98
2022-08-12T03:48:13.367Z,14.23
2022-08-12T03:51:05.655Z,14.09
2022-08-12T03:53:51.755Z,14.04
2022-08-12T03:56:37.377Z,14.14
2022-08-12T03:59:24.700Z,14.02
2022-08-12T04:01:57.961Z,14.03
2022-08-12T04:04:34.631Z,14.03
2022-08-12T04:07:03.327Z,14.11
2022-08-12T04:09:31.781Z,14.25
2022-08-12T04:12:17.548Z,14.31
2022-08-12T04:14:45.474Z,14.36
2022-08-12T04:17:14.680Z,14.42
2022-08-12T04:19:44.504Z,15.01
2022-08-12T04:22:12.551Z,15.74
2022-08-12T04:24:41.921Z,16.58
2022-08-12T04:27:11.863Z,17.57
2022-08-12T04:30:30.523Z,18.47
2022-08-12T04:32:28.676Z,19.58
2022-08-12T04:34:59.292Z,20.17
2022-08-12T04:37:27.332Z,20.48
2022-08-12T04:39:56.334Z,21.39
2022-08-12T04:42:25.983Z,21.82
2022-08-12T04:44:54.177Z,22.29
2022-08-12T04:47:22.583Z,22.82
2022-08-12T04:49:51.050Z,23.62
2022-08-12T04:52:20.314Z,24.28
2022-08-12T04:54:48.876Z,25.59
2022-08-12T04:57:16.610Z,25.92
2022-08-12T04:59:48.754Z,25.92
2022-08-12T05:02:21.428Z,27.19
2022-08-12T05:04:52.486Z,26.95
2022-08-12T05:07:23.993Z,27.90
2022-08-12T05:10:00.463Z,27.22
2022-08-12T05:12:36.611Z,28.85
2022-08-12T05:15:19.796Z,30.15
2022-08-12T05:17:55.472Z,30.23
2022-08-12T05:20:26.314Z,30.50
2022-08-12T05:23:12.555Z,31.01
2022-08-12T05:25:43.075Z,31.17
2022-08-12T05:28:13.304Z,31.06
2022-08-12T05:30:44.763Z,31.07
2022-08-12T05:33:15.877Z,31.89
2022-08-12T05:35:45.781Z,32.66
2022-08-12T05:38:33.772Z,33.02
2022-08-12T05:41:02.315Z,33.57
2022-08-12T05:43:30.198Z,33.32
2022-08-12T05:45:58.102Z,33.11
2022-08-12T05:48:26.024Z,34.47
2022-08-12T05:50:56.656Z,32.94
2022-08-12T05:53:25.772Z,32.88
2022-08-12T05:55:54.784Z,33.07
2022-08-12T05:58:22.884Z,33.25
2022-08-12T06:00:50.700Z,34.04
2022-08-12T06:03:19.644Z,33.50
2022-08-12T06:05:54.495Z,33.25
2022-08-12T06:08:25.791Z,32.99
2022-08-12T06:10:54.131Z,34.99
2022-08-12T06:13:28.186Z,35.34
2022-08-12T06:15:56.739Z,36.86
2022-08-12T06:18:29.296Z,36.40
2022-08-12T06:21:01.489Z,36.55
2022-08-12T06:23:31.370Z,36.37
2022-08-12T06:25:59.732Z,36.60
2022-08-12T06:28:30.452Z,36.76
2022-08-12T06:33:59.593Z,36.42
2022-08-12T06:36:29.527Z,36.34
2022-08-12T06:38:59.695Z,37.69
2022-08-12T06:42:30.895Z,37.56
2022-08-12T06:44:33.203Z,36.37
2022-08-12T06:47:01.388Z,37.14
2022-08-12T06:49:33.497Z,39.09
2022-08-12T06:52:01.270Z,39.80
2022-08-12T06:54:32.266Z,39.25
2022-08-12T06:57:04.042Z,40.11
2022-08-12T06:59:35.620Z,40.35
2022-08-12T07:02:03.374Z,40.14
2022-08-12T07:04:39.473Z,40.68
2022-08-12T07:07:08.967Z,39.25
2022-08-12T07:10:06.818Z,40.36
2022-08-12T07:12:28.742Z,38.73
2022-08-12T07:14:57.518Z,41.14
2022-08-12T07:17:25.952Z,41.92
2022-08-12T07:19:56.137Z,42.24
2022-08-12T07:22:26.998Z,41.39
2022-08-12T07:25:10.094Z,42.07
2022-08-12T07:27:40.632Z,42.65
2022-08-12T07:30:09.912Z,42.33
2022-08-12T07:32:37.757Z,42.81
2022-08-12T07:35:06.973Z,43.46
2022-08-12T07:37:35.131Z,44.23
2022-08-12T07:40:05.745Z,43.55
2022-08-12T07:42:34.628Z,42.46
2022-08-12T07:45:05.009Z,41.23
2022-08-12T07:47:35.748Z,41.61
2022-08-12T07:50:09.120Z,41.30
2022-08-12T07:52:38.263Z,38.00
2022-08-12T07:55:09.021Z,36.03
2022-08-12T07:57:37.274Z,36.20
2022-08-12T08:00:06.972Z,35.31
2022-08-12T08:02:37.054Z,37.26
2022-08-12T08:05:07.058Z,34.34
2022-08-12T08:07:34.932Z,34.47
2022-08-12T08:10:11.165Z,35.40
2022-08-12T08:12:55.982Z,35.37
2022-08-12T08:15:44.630Z,34.85
2022-08-12T08:18:26.904Z,34.26
2022-08-12T08:20:57.763Z,37.29
2022-08-12T08:23:55.826Z,35.67
2022-08-12T08:26:27.151Z,33.98
2022-08-12T08:28:59.580Z,35.02
2022-08-12T08:31:27.734Z,36.00
2022-08-12T08:34:09.613Z,33.74
2022-08-12T08:36:45.336Z,32.61
2022-08-12T08:39:17.013Z,32.38
2022-08-12T08:42:17.087Z,34.16
2022-08-12T08:44:55.871Z,34.84
2022-08-12T08:47:26.132Z,33.26
2022-08-12T08:49:54.724Z,34.83
2022-08-12T08:52:39.126Z,33.90
2022-08-12T08:55:12.488Z,34.29
2022-08-12T08:57:44.035Z,33.22
2022-08-12T09:00:16.417Z,32.92
2022-08-12T09:02:58.394Z,33.29
2022-08-12T09:05:27.899Z,32.47
2022-08-12T09:08:09.062Z,33.21
2022-08-12T09:10:45.154Z,35.37
2022-08-12T09:13:29.246Z,38.15
2022-08-12T09:16:19.998Z,38.76
2022-08-12T09:18:52.506Z,36.00
2022-08-12T09:21:23.108Z,34.56
2022-08-12T09:26:46.495Z,34.38
2022-08-12T09:29:15.407Z,33.15
2022-08-12T09:32:07.713Z,33.31
2022-08-12T09:34:33.930Z,31.06
2022-08-12T09:37:18.880Z,30.56
2022-08-12T09:40:01.603Z,30.46
2022-08-12T09:43:16.004Z,29.98
2022-08-12T09:46:12.008Z,30.02
2022-08-12T09:48:36.552Z,29.73
2022-08-12T09:51:16.935Z,29.79
2022-08-12T09:54:09.026Z,28.98
2022-08-12T09:57:00.304Z,30.43
2022-08-12T10:00:15.482Z,30.27
2022-08-12T10:02:44.470Z,29.36
2022-08-12T10:05:05.067Z,29.14
2022-08-12T10:07:39.920Z,29.42
2022-08-12T10:10:23.764Z,29.92
2022-08-12T10:13:13.582Z,30.78
2022-08-12T10:16:02.529Z,31.25
2022-08-12T10:18:35.248Z,31.70
2022-08-12T10:21:09.418Z,31.92
2022-08-12T10:23:40.185Z,32.53
2022-08-12T10:26:38.134Z,31.05
2022-08-12T10:30:01.453Z,32.95
2022-08-12T10:32:21.365Z,34.16
2022-08-12T10:34:53.376Z,33.95
2022-08-12T10:38:38.266Z,31.69
2022-08-12T10:40:18.945Z,35.38
2022-08-12T10:43:05.462Z,34.06
2022-08-12T10:45:33.212Z,33.53
2022-08-12T10:48:21.295Z,33.00
2022-08-12T10:51:02.186Z,31.46
2022-08-12T10:53:44.054Z,33.44
2022-08-12T10:56:15.277Z,32.30
2022-08-12T10:58:46.166Z,31.66
2022-08-12T11:01:50.467Z,33.23
2022-08-12T11:04:24.945Z,31.24
2022-08-12T11:07:05.536Z,32.48
2022-08-12T11:10:00.353Z,33.16
2022-08-12T11:12:56.634Z,32.36
2022-08-12T11:15:33.187Z,30.95
2022-08-12T11:18:12.059Z,30.93
2022-08-12T11:20:47.610Z,31.73
2022-08-12T11:23:25.440Z,31.55
2022-08-12T11:26:07.284Z,32.00
2022-08-12T11:28:37.817Z,31.69
2022-08-12T11:31:11.946Z,30.93
2022-08-12T11:34:06.625Z,31.85
2022-08-12T11:36:29.625Z,30.97
2022-08-12T11:38:58.666Z,30.90
2022-08-12T11:41:39.448Z,29.62
2022-08-12T11:44:36.349Z,30.06
2022-08-12T11:46:59.472Z,30.49
2022-08-12T11:49:31.530Z,31.32
2022-08-12T11:52:02.219Z,31.35
2022-08-12T11:54:30.981Z,30.97
2022-08-12T11:57:02.302Z,30.85
2022-08-12T12:02:20.863Z,30.83
2022-08-12T12:04:52.910Z,30.91
2022-08-12T12:07:22.886Z,29.61
2022-08-12T12:10:12.222Z,29.04
2022-08-12T12:12:50.282Z,28.39
2022-08-12T12:15:24.707Z,28.74
2022-08-12T12:17:55.811Z,28.34
2022-08-12T12:20:27.763Z,28.68
2022-08-12T12:22:59.017Z,28.78
2022-08-12T12:25:59.742Z,28.91
2022-08-12T12:28:37.768Z,29.12
2022-08-12T12:31:04.894Z,29.23
2022-08-12T12:33:57.366Z,29.41
2022-08-12T12:36:29.823Z,29.65
2022-08-12T12:38:58.476Z,28.65
2022-08-12T12:42:43.207Z,28.07
2022-08-12T12:44:25.725Z,28.68
2022-08-12T12:46:58.728Z,29.08
2022-08-12T12:49:28.715Z,28.36
2022-08-12T12:52:18.366Z,28.08
2022-08-12T12:54:52.968Z,27.56
2022-08-12T12:57:36.389Z,27.22
2022-08-12T13:00:15.782Z,27.80
2022-08-12T13:02:50.825Z,27.89
2022-08-12T13:05:27.992Z,28.18
2022-08-12T13:08:01.378Z,27.75
2022-08-12T13:10:37.113Z,27.91
2022-08-12T13:14:06.396Z,27.62
2022-08-12T13:15:59.595Z,27.52
2022-08-12T13:18:31.789Z,27.98
2022-08-12T13:20:59.838Z,28.59
2022-08-12T13:23:36.150Z,29.06
2022-08-12T13:26:05.520Z,28.76
2022-08-12T13:28:34.205Z,28.50
2022-08-12T13:31:03.465Z,28.39
2022-08-12T13:34:33.360Z,27.95
2022-08-12T13:36:23.564Z,27.99
2022-08-12T13:38:54.574Z,28.30
2022-08-12T13:41:33.674Z,28.30
2022-08-12T13:44:02.889Z,28.06
2022-08-12T13:46:32.132Z,28.11
2022-08-12T13:49:00.513Z,28.15
2022-08-12T13:51:40.635Z,28.33
2022-08-12T13:54:09.999Z,28.93
2022-08-12T13:56:41.646Z,28.53
2022-08-12T13:59:20.484Z,28.39
2022-08-12T14:01:56.864Z,28.10
2022-08-12T14:04:27.753Z,28.03
2022-08-12T14:07:02.944Z,28.64
2022-08-12T14:09:51.366Z,28.42
2022-08-12T14:12:22.370Z,28.44
2022-08-12T14:14:52.003Z,28.55
2022-08-12T14:17:23.468Z,28.57
2022-08-12T14:20:10.934Z,28.92
2022-08-12T14:22:38.890Z,28.50
2022-08-12T14:25:17.417Z,28.97
2022-08-12T14:28:02.593Z,29.06
2022-08-12T14:30:33.062Z,29.26
2022-08-12T14:33:03.708Z,29.37
2022-08-12T14:35:44.714Z,28.70
2022-08-12T14:38:25.433Z,28.91
2022-08-12T14:40:56.652Z,27.86
2022-08-12T14:43:25.800Z,28.78
2022-08-12T14:46:00.002Z,29.14
2022-08-12T14:48:30.115Z,29.13
2022-08-12T14:51:30.391Z,28.65
2022-08-12T14:55:38.589Z,28.86
2022-08-12T14:59:57.932Z,28.22
2022-08-12T15:02:28.834Z,28.64
2022-08-12T15:05:00.862Z,28.78
2022-08-12T15:07:33.728Z,28.71
2022-08-12T15:10:25.366Z,27.91
2022-08-12T15:13:07.495Z,28.14
2022-08-12T15:15:43.975Z,28.29
2022-08-12T15:18:16.025Z,28.11
2022-08-12T15:20:54.704Z,28.27
2022-08-12T15:23:29.105Z,28.00
2022-08-12T15:26:03.639Z,28.30
2022-08-12T15:28:34.113Z,28.38
2022-08-12T15:31:03.164Z,28.15
2022-08-12T15:33:50.057Z,27.76
2022-08-12T15:36:36.604Z,27.58
2022-08-12T15:39:17.143Z,27.48
2022-08-12T15:41:49.470Z,27.57
2022-08-12T15:44:38.489Z,27.88
2022-08-12T15:47:07.142Z,28.17
2022-08-12T15:49:55.032Z,28.69
2022-08-12T15:52:28.869Z,28.97
2022-08-12T15:54:58.572Z,29.35
2022-08-12T15:57:27.007Z,29.09
2022-08-12T16:00:06.672Z,28.46
2022-08-12T16:02:49.419Z,27.83
2022-08-12T16:06:10.117Z,27.14
2022-08-12T16:08:17.184Z,26.90
2022-08-12T16:10:48.480Z,26.73
2022-08-12T16:13:32.236Z,26.53
2022-08-12T16:16:03.686Z,26.41
2022-08-12T16:18:37.235Z,26.31
2022-08-12T16:21:06.761Z,26.12
2022-08-12T16:23:52.151Z,26.36
2022-08-12T16:26:32.309Z,26.38
2022-08-12T16:29:15.421Z,26.53
2022-08-12T16:31:44.611Z,26.62
2022-08-12T16:34:25.450Z,26.79
2022-08-12T16:37:07.167Z,26.67
2022-08-12T16:40:01.790Z,26.90
2022-08-12T16:42:28.026Z,27.01
2022-08-12T16:44:57.087Z,27.26
2022-08-12T16:47:27.106Z,27.46
2022-08-12T16:49:58.151Z,27.55
2022-08-12T16:52:27.117Z,27.77
2022-08-12T16:54:57.014Z,27.39
2022-08-12T16:57:35.063Z,27.34
2022-08-12T17:00:17.547Z,26.70
2022-08-12T17:02:56.448Z,26.56
2022-08-12T17:05:30.973Z,26.75
2022-08-12T17:08:01.234Z,27.01
2022-08-12T17:10:36.637Z,27.24
2022-08-12T17:13:09.758Z,27.42
2022-08-12T17:16:05.891Z,27.32
2022-08-12T17:18:42.719Z,27.16
2022-08-12T17:21:17.296Z,26.59
2022-08-12T17:23:53.529Z,26.27
2022-08-12T17:26:31.124Z,26.30
2022-08-12T17:29:00.526Z,26.30
2022-08-12T17:31:59.796Z,26.24
2022-08-12T17:34:33.539Z,26.22
2022-08-12T17:37:04.927Z,26.21
2022-08-12T17:40:12.462Z,26.24
2022-08-12T17:42:34.456Z,26.35
2022-08-12T17:45:17.084Z,26.20
2022-08-12T17:48:01.715Z,26.09
2022-08-12T17:50:33.692Z,26.07
2022-08-12T17:53:02.780Z,25.83
2022-08-12T17:55:43.269Z,25.62
2022-08-12T17:58:14.326Z,25.36
2022-08-12T18:00:44.226Z,25.46
2022-08-12T18:03:13.559Z,25.29
2022-08-12T18:06:08.725Z,25.30
2022-08-12T18:08:53.598Z,25.18
2022-08-12T18:12:05.726Z,25.10
2022-08-12T18:14:29.528Z,24.89
2022-08-12T18:17:00.322Z,24.81
2022-08-12T18:19:34.167Z,24.73
2022-08-12T18:22:22.084Z,24.63
2022-08-12T18:25:03.657Z,24.44
2022-08-12T18:27:44.473Z,24.23
2022-08-12T18:30:29.148Z,24.43
2022-08-12T18:33:03.739Z,24.48
2022-08-12T18:35:47.007Z,24.55
2022-08-12T18:38:22.601Z,24.58
2022-08-12T18:41:11.045Z,24.44
2022-08-12T18:43:58.491Z,24.31
2022-08-12T18:46:35.952Z,24.01
2022-08-12T18:49:17.686Z,23.93
2022-08-12T18:51:55.465Z,23.86
2022-08-12T18:54:34.107Z,23.83
2022-08-12T18:57:20.022Z,23.72
2022-08-12T19:00:02.057Z,23.56
2022-08-12T19:02:39.006Z,23.32
2022-08-12T19:05:11.344Z,23.25
2022-08-12T19:07:49.702Z,23.24
2022-08-12T19:10:27.122Z,23.17
2022-08-12T19:13:21.279Z,23.22
2022-08-12T19:15:53.796Z,23.08
2022-08-12T19:18:24.339Z,23.31
2022-08-12T19:20:52.488Z,23.13
2022-08-12T19:23:22.283Z,23.09
2022-08-12T19:26:00.672Z,22.88
2022-08-12T19:28:34.703Z,22.81
2022-08-12T19:31:44.821Z,22.71
2022-08-12T19:37:26.679Z,22.10
2022-08-12T19:40:09.872Z,22.00
2022-08-12T19:42:57.585Z,21.68
2022-08-12T19:45:42.257Z,21.62
2022-08-12T19:48:16.627Z,21.45
2022-08-12T19:50:50.339Z,21.57
2022-08-12T19:53:22.974Z,21.47
2022-08-12T19:55:53.211Z,21.51
2022-08-12T19:58:22.141Z,21.32
2022-08-12T20:00:53.634Z,21.25
2022-08-12T20:03:40.082Z,21.27
2022-08-12T20:06:16.068Z,21.16
2022-08-12T20:08:56.398Z,20.98
2022-08-12T20:12:15.041Z,20.83
2022-08-12T20:14:18.009Z,20.64
2022-08-12T20:16:51.926Z,20.48
2022-08-12T20:19:23.244Z,20.49
2022-08-12T20:21:54.872Z,20.49
2022-08-12T20:24:23.264Z,20.50
2022-08-12T20:26:59.149Z,20.72
2022-08-12T20:29:36.578Z,20.77
2022-08-12T20:32:14.395Z,20.80
2022-08-12T20:34:48.973Z,20.85
2022-08-12T20:38:06.730Z,20.86
2022-08-12T20:40:19.948Z,20.97
2022-08-12T20:42:53.814Z,21.19
2022-08-12T20:45:22.585Z,21.38
2022-08-12T20:48:01.593Z,21.42
2022-08-12T20:50:33.312Z,21.46
2022-08-12T20:53:03.543Z,21.44
2022-08-12T20:55:42.136Z,21.24
2022-08-12T20:58:12.425Z,21.24
2022-08-12T21:00:40.378Z,20.94
2022-08-12T21:03:26.055Z,20.71
2022-08-12T21:06:14.112Z,20.55
2022-08-12T21:08:44.216Z,20.46
2022-08-12T21:11:11.974Z,20.50
2022-08-12T21:13:42.274Z,20.27
2022-08-12T21:16:10.505Z,20.28
2022-08-12T21:18:39.772Z,20.33
2022-08-12T21:21:23.153Z,20.20
2022-08-12T21:23:56.597Z,20.02
2022-08-12T21:26:27.598Z,19.89
2022-08-12T21:29:01.194Z,19.43
2022-08-12T21:32:36.348Z,19.41
2022-08-12T21:34:26.122Z,19.18
2022-08-12T21:37:01.886Z,19.16
2022-08-12T21:39:53.450Z,19.25
2022-08-12T21:42:28.071Z,19.06
2022-08-12T21:45:47.775Z,18.95
2022-08-12T21:47:53.041Z,18.87
2022-08-12T21:50:21.284Z,18.77
2022-08-12T21:52:50.166Z,18.89
2022-08-12T21:55:20.328Z,18.96
2022-08-12T21:57:53.662Z,18.94
2022-08-12T22:00:33.522Z,18.90
2022-08-12T22:04:01.779Z,19.02
2022-08-12T22:06:31.439Z,18.97
2022-08-12T22:09:15.944Z,18.79
2022-08-12T22:11:56.478Z,18.67
2022-08-12T22:14:28.500Z,18.63
2022-08-12T22:16:58.247Z,18.58
2022-08-12T22:19:27.027Z,18.51
2022-08-12T22:21:58.738Z,18.54
2022-08-12T22:24:30.587Z,18.46
2022-08-12T22:27:18.110Z,18.37
2022-08-12T22:30:07.512Z,18.27
2022-08-12T22:32:42.110Z,18.31
2022-08-12T22:35:47.648Z,18.28
2022-08-12T22:38:29.377Z,18.19
2022-08-12T22:41:01.276Z,18.08
2022-08-12T22:44:01.044Z,17.97
2022-08-12T22:46:51.810Z,17.85
2022-08-12T22:49:21.059Z,17.84
2022-08-12T22:52:00.503Z,17.83
2022-08-12T22:54:36.054Z,17.83
2022-08-12T22:57:12.093Z,17.80
2022-08-12T22:59:55.703Z,17.81
2022-08-12T23:02:39.189Z,17.72
2022-08-12T23:05:08.716Z,17.62
2022-08-12T23:07:58.770Z,17.52
2022-08-12T23:10:27.944Z,17.47
2022-08-12T23:13:14.712Z,17.31
2022-08-12T23:15:47.466Z,17.24
2022-08-12T23:18:18.035Z,17.23
2022-08-12T23:20:46.073Z,17.03
2022-08-12T23:23:18.108Z,17.18
2022-08-12T23:25:54.989Z,17.21
2022-08-12T23:28:42.369Z,17.28
2022-08-12T23:31:11.643Z,17.32
2022-08-12T23:34:02.457Z,17.34
2022-08-12T23:36:39.295Z,17.38
2022-08-12T23:40:06.657Z,17.42
2022-08-12T23:42:17.932Z,17.20
2022-08-12T23:44:48.621Z,17.13
2022-08-12T23:47:22.803Z,16.89
2022-08-12T23:49:57.075Z,16.82
2022-08-12T23:52:34.587Z,16.71
2022-08-12T23:55:23.342Z,16.68
2022-08-12T23:58:20.905Z,16.55
